sensor_id;sensor_type;location;lat;lon;timestamp;temperature;humidity
20315;DHT22;10315;50.958;13.080;2024-01-25T00:02:36;6.20;99.90
20315;DHT22;10315;50.958;13.080;2024-01-25T00:12:38;6.00;99.90
20315;DHT22;10315;50.958;13.080;2024-01-25T00:22:40;6.30;99.90
20315;DHT22;10315;50.958;13.080;2024-01-25T00:32:43;6.30;99.90
20315;DHT22;10315;50.958;13.080;2024-01-25T00:42:45;6.10;99.90
20315;DHT22;10315;50.958;13.080;2024-01-25T00:52:50;5.60;99.90
20315;DHT22;10315;50.958;13.080;2024-01-25T01:02:52;5.40;99.90
20315;DHT22;10315;50.958;13.080;2024-01-25T01:12:55;5.30;99.90
20315;DHT22;10315;50.958;13.080;2024-01-25T01:22:57;5.30;99.90
20315;DHT22;10315;50.958;13.080;2024-01-25T01:32:59;5.40;99.90
20315;DHT22;10315;50.958;13.080;2024-01-25T01:43:01;5.50;99.90
20315;DHT22;10315;50.958;13.080;2024-01-25T01:53:04;5.50;99.90
20315;DHT22;10315;50.958;13.080;2024-01-25T02:03:06;5.70;99.90
20315;DHT22;10315;50.958;13.080;2024-01-25T02:13:09;5.70;99.90
20315;DHT22;10315;50.958;13.080;2024-01-25T02:23:12;5.70;99.90
20315;DHT22;10315;50.958;13.080;2024-01-25T02:33:13;5.80;99.90
20315;DHT22;10315;50.958;13.080;2024-01-25T02:43:16;5.80;99.90
20315;DHT22;10315;50.958;13.080;2024-01-25T02:53:17;5.70;99.90
20315;DHT22;10315;50.958;13.080;2024-01-25T03:03:20;5.70;99.90
20315;DHT22;10315;50.958;13.080;2024-01-25T03:13:23;5.70;99.90
20315;DHT22;10315;50.958;13.080;2024-01-25T03:23:26;5.70;99.90
20315;DHT22;10315;50.958;13.080;2024-01-25T03:33:28;5.60;99.90
20315;DHT22;10315;50.958;13.080;2024-01-25T03:43:31;5.50;99.90
20315;DHT22;10315;50.958;13.080;2024-01-25T03:53:32;5.40;99.90
20315;DHT22;10315;50.958;13.080;2024-01-25T04:03:35;5.60;99.90
20315;DHT22;10315;50.958;13.080;2024-01-25T04:13:37;5.50;99.90
20315;DHT22;10315;50.958;13.080;2024-01-25T04:23:39;5.50;99.90
20315;DHT22;10315;50.958;13.080;2024-01-25T04:33:41;5.50;99.90
20315;DHT22;10315;50.958;13.080;2024-01-25T04:43:44;5.50;99.90
20315;DHT22;10315;50.958;13.080;2024-01-25T04:53:46;5.50;99.90
20315;DHT22;10315;50.958;13.080;2024-01-25T05:03:49;5.60;99.90
20315;DHT22;10315;50.958;13.080;2024-01-25T05:13:50;5.40;99.90
20315;DHT22;10315;50.958;13.080;2024-01-25T05:23:53;5.30;99.90
20315;DHT22;10315;50.958;13.080;2024-01-25T05:33:55;5.40;99.90
20315;DHT22;10315;50.958;13.080;2024-01-25T05:43:57;5.30;99.90
20315;DHT22;10315;50.958;13.080;2024-01-25T05:53:59;5.40;99.90
20315;DHT22;10315;50.958;13.080;2024-01-25T06:04:02;5.30;99.90
20315;DHT22;10315;50.958;13.080;2024-01-25T06:14:04;5.20;99.90
20315;DHT22;10315;50.958;13.080;2024-01-25T06:24:07;5.20;99.90
20315;DHT22;10315;50.958;13.080;2024-01-25T06:34:09;5.10;99.90
20315;DHT22;10315;50.958;13.080;2024-01-25T06:44:11;5.10;99.90
20315;DHT22;10315;50.958;13.080;2024-01-25T06:54:13;5.10;99.90
20315;DHT22;10315;50.958;13.080;2024-01-25T07:04:16;5.10;99.90
20315;DHT22;10315;50.958;13.080;2024-01-25T07:14:17;5.00;99.90
20315;DHT22;10315;50.958;13.080;2024-01-25T07:24:20;5.10;99.90
20315;DHT22;10315;50.958;13.080;2024-01-25T07:34:21;5.10;99.90
20315;DHT22;10315;50.958;13.080;2024-01-25T07:44:24;5.20;99.90
20315;DHT22;10315;50.958;13.080;2024-01-25T07:54:25;5.20;99.90
20315;DHT22;10315;50.958;13.080;2024-01-25T08:04:28;5.40;99.90
20315;DHT22;10315;50.958;13.080;2024-01-25T08:14:30;5.40;99.90
20315;DHT22;10315;50.958;13.080;2024-01-25T08:24:33;5.50;99.90
20315;DHT22;10315;50.958;13.080;2024-01-25T08:34:34;5.70;99.90
20315;DHT22;10315;50.958;13.080;2024-01-25T08:44:38;5.90;99.90
20315;DHT22;10315;50.958;13.080;2024-01-25T08:54:44;6.00;99.90
20315;DHT22;10315;50.958;13.080;2024-01-25T09:04:47;6.70;99.90
20315;DHT22;10315;50.958;13.080;2024-01-25T09:14:49;6.60;99.90
20315;DHT22;10315;50.958;13.080;2024-01-25T09:24:52;6.70;99.90
20315;DHT22;10315;50.958;13.080;2024-01-25T09:34:53;6.90;99.90
20315;DHT22;10315;50.958;13.080;2024-01-25T09:44:56;6.90;99.90
20315;DHT22;10315;50.958;13.080;2024-01-25T09:54:58;6.80;99.90
20315;DHT22;10315;50.958;13.080;2024-01-25T10:05:01;7.10;99.90
20315;DHT22;10315;50.958;13.080;2024-01-25T10:15:03;7.40;99.90
20315;DHT22;10315;50.958;13.080;2024-01-25T10:25:07;7.70;99.90
20315;DHT22;10315;50.958;13.080;2024-01-25T10:35:12;7.50;99.90
20315;DHT22;10315;50.958;13.080;2024-01-25T10:45:16;7.60;99.90
20315;DHT22;10315;50.958;13.080;2024-01-25T10:55:18;8.20;99.90
20315;DHT22;10315;50.958;13.080;2024-01-25T11:05:22;8.40;99.90
20315;DHT22;10315;50.958;13.080;2024-01-25T11:15:29;7.60;99.90
20315;DHT22;10315;50.958;13.080;2024-01-25T11:25:33;7.10;99.90
20315;DHT22;10315;50.958;13.080;2024-01-25T11:35:35;7.00;99.90
20315;DHT22;10315;50.958;13.080;2024-01-25T11:45:38;7.20;99.90
20315;DHT22;10315;50.958;13.080;2024-01-25T11:55:42;7.60;99.90
20315;DHT22;10315;50.958;13.080;2024-01-25T12:05:45;7.20;99.90
20315;DHT22;10315;50.958;13.080;2024-01-25T12:15:47;7.10;99.90
20315;DHT22;10315;50.958;13.080;2024-01-25T12:25:50;6.90;99.90
20315;DHT22;10315;50.958;13.080;2024-01-25T12:35:52;6.90;99.90
20315;DHT22;10315;50.958;13.080;2024-01-25T12:45:56;7.00;99.90
20315;DHT22;10315;50.958;13.080;2024-01-25T12:55:57;6.90;99.90
20315;DHT22;10315;50.958;13.080;2024-01-25T13:06:00;6.90;99.90
20315;DHT22;10315;50.958;13.080;2024-01-25T13:16:03;6.80;99.90
20315;DHT22;10315;50.958;13.080;2024-01-25T13:26:06;6.50;99.90
20315;DHT22;10315;50.958;13.080;2024-01-25T13:36:08;6.10;99.90
20315;DHT22;10315;50.958;13.080;2024-01-25T13:46:14;6.10;99.90
20315;DHT22;10315;50.958;13.080;2024-01-25T13:56:15;6.10;99.90
20315;DHT22;10315;50.958;13.080;2024-01-25T14:06:19;6.10;99.90
20315;DHT22;10315;50.958;13.080;2024-01-25T14:16:21;6.20;99.90
20315;DHT22;10315;50.958;13.080;2024-01-25T14:26:24;6.20;99.90
20315;DHT22;10315;50.958;13.080;2024-01-25T14:36:25;6.00;99.90
20315;DHT22;10315;50.958;13.080;2024-01-25T14:46:28;6.00;99.90
20315;DHT22;10315;50.958;13.080;2024-01-25T14:56:30;5.90;99.90
20315;DHT22;10315;50.958;13.080;2024-01-25T15:06:32;5.80;99.90
20315;DHT22;10315;50.958;13.080;2024-01-25T15:16:34;5.60;99.90
20315;DHT22;10315;50.958;13.080;2024-01-25T15:26:40;5.60;99.90
20315;DHT22;10315;50.958;13.080;2024-01-25T15:36:41;5.50;99.90
20315;DHT22;10315;50.958;13.080;2024-01-25T15:46:45;5.40;99.90
20315;DHT22;10315;50.958;13.080;2024-01-25T15:56:47;5.10;99.90
20315;DHT22;10315;50.958;13.080;2024-01-25T16:06:50;4.90;99.90
20315;DHT22;10315;50.958;13.080;2024-01-25T16:16:51;4.80;99.90
20315;DHT22;10315;50.958;13.080;2024-01-25T16:26:54;4.70;99.90
20315;DHT22;10315;50.958;13.080;2024-01-25T16:36:57;4.70;99.90
20315;DHT22;10315;50.958;13.080;2024-01-25T16:46:59;4.70;99.90
20315;DHT22;10315;50.958;13.080;2024-01-25T16:57:01;4.70;99.90
20315;DHT22;10315;50.958;13.080;2024-01-25T17:07:04;4.60;99.90
20315;DHT22;10315;50.958;13.080;2024-01-25T17:17:06;4.40;99.90
20315;DHT22;10315;50.958;13.080;2024-01-25T17:27:09;4.20;99.90
20315;DHT22;10315;50.958;13.080;2024-01-25T17:37:10;3.50;99.90
20315;DHT22;10315;50.958;13.080;2024-01-25T17:47:13;2.90;99.90
20315;DHT22;10315;50.958;13.080;2024-01-25T17:57:15;2.80;99.90
20315;DHT22;10315;50.958;13.080;2024-01-25T18:07:17;2.70;99.90
20315;DHT22;10315;50.958;13.080;2024-01-25T18:17:19;2.50;99.90
20315;DHT22;10315;50.958;13.080;2024-01-25T18:27:22;2.70;99.90
20315;DHT22;10315;50.958;13.080;2024-01-25T18:37:23;3.20;99.90
20315;DHT22;10315;50.958;13.080;2024-01-25T18:47:26;3.30;99.90
20315;DHT22;10315;50.958;13.080;2024-01-25T18:57:27;3.60;99.90
20315;DHT22;10315;50.958;13.080;2024-01-25T19:07:31;3.50;99.90
20315;DHT22;10315;50.958;13.080;2024-01-25T19:17:33;3.70;99.90
20315;DHT22;10315;50.958;13.080;2024-01-25T19:27:36;3.60;99.90
20315;DHT22;10315;50.958;13.080;2024-01-25T19:37:38;3.60;99.90
20315;DHT22;10315;50.958;13.080;2024-01-25T19:47:41;3.60;99.90
20315;DHT22;10315;50.958;13.080;2024-01-25T19:57:42;3.50;99.90
20315;DHT22;10315;50.958;13.080;2024-01-25T20:07:46;3.40;99.90
20315;DHT22;10315;50.958;13.080;2024-01-25T20:17:47;3.50;99.90
20315;DHT22;10315;50.958;13.080;2024-01-25T20:27:50;3.50;99.90
20315;DHT22;10315;50.958;13.080;2024-01-25T20:37:52;3.40;99.90
20315;DHT22;10315;50.958;13.080;2024-01-25T20:47:54;2.90;99.90
20315;DHT22;10315;50.958;13.080;2024-01-25T20:57:56;2.40;99.90
20315;DHT22;10315;50.958;13.080;2024-01-25T21:07:59;2.00;99.90
20315;DHT22;10315;50.958;13.080;2024-01-25T21:18:00;1.70;99.90
20315;DHT22;10315;50.958;13.080;2024-01-25T21:28:03;1.50;99.90
20315;DHT22;10315;50.958;13.080;2024-01-25T21:38:06;1.30;99.90
20315;DHT22;10315;50.958;13.080;2024-01-25T21:48:09;1.20;99.90
20315;DHT22;10315;50.958;13.080;2024-01-25T21:58:10;1.00;99.90
20315;DHT22;10315;50.958;13.080;2024-01-25T22:08:13;1.20;99.90
20315;DHT22;10315;50.958;13.080;2024-01-25T22:18:15;1.40;99.90
20315;DHT22;10315;50.958;13.080;2024-01-25T22:28:18;1.50;99.90
20315;DHT22;10315;50.958;13.080;2024-01-25T22:38:19;1.50;99.90
20315;DHT22;10315;50.958;13.080;2024-01-25T22:48:22;1.40;99.90
20315;DHT22;10315;50.958;13.080;2024-01-25T22:58:23;1.50;99.90
20315;DHT22;10315;50.958;13.080;2024-01-25T23:08:26;1.20;99.90
20315;DHT22;10315;50.958;13.080;2024-01-25T23:18:28;1.10;99.90
20315;DHT22;10315;50.958;13.080;2024-01-25T23:28:33;1.10;99.90
20315;DHT22;10315;50.958;13.080;2024-01-25T23:38:34;1.10;99.90
20315;DHT22;10315;50.958;13.080;2024-01-25T23:48:39;1.10;99.90
20315;DHT22;10315;50.958;13.080;2024-01-25T23:58:40;1.00;99.90
